createdAt,value
2018-08-22T00:00:00.452Z,4.6
2018-08-22T00:05:00.382Z,4.3
2018-08-22T00:10:00.519Z,4.5
2018-08-22T00:15:00.418Z,4.4
2018-08-22T00:20:00.457Z,4.6
2018-08-22T00:25:00.399Z,4.2
2018-08-22T00:30:00.457Z,4.9
2018-08-22T00:35:00.392Z,4.7
2018-08-22T00:45:00.464Z,4.3
2018-08-22T00:50:00.533Z,4.5
2018-08-22T00:55:00.402Z,4.0
2018-08-22T01:00:00.463Z,4.2
2018-08-22T01:05:00.407Z,4.7
2018-08-22T01:15:00.489Z,4.7
2018-08-22T01:20:00.409Z,4.6
2018-08-22T01:25:00.379Z,4.8
2018-08-22T01:30:00.484Z,4.3
2018-08-22T01:40:00.418Z,4.9
2018-08-22T01:45:00.412Z,4.8
2018-08-22T01:50:00.417Z,4.5
2018-08-22T02:00:00.453Z,4.6
2018-08-22T02:05:00.460Z,4.0
2018-08-22T02:10:00.464Z,4.4
2018-08-22T02:15:00.465Z,4.2
2018-08-22T02:25:00.486Z,4.4
2018-08-22T02:30:00.426Z,4.6
2018-08-22T02:35:00.440Z,4.8
2018-08-22T02:45:00.528Z,5.0
2018-08-22T02:55:00.514Z,5.1
2018-08-22T03:00:00.448Z,4.7
2018-08-22T03:05:00.447Z,4.9
2018-08-22T03:10:00.452Z,5.3
2018-08-22T03:15:00.479Z,5.3
2018-08-22T03:25:00.554Z,5.4
2018-08-22T03:30:00.482Z,5.8
2018-08-22T03:35:00.493Z,5.4
2018-08-22T03:40:00.569Z,5.2
2018-08-22T03:45:00.495Z,5.3
2018-08-22T03:50:00.466Z,5.7
2018-08-22T03:55:00.464Z,5.2
2018-08-22T04:00:00.473Z,5.5
2018-08-22T04:05:00.478Z,5.8
2018-08-22T04:10:00.480Z,5.9
2018-08-22T04:15:00.478Z,5.5
2018-08-22T04:20:00.482Z,6.0
2018-08-22T04:25:00.488Z,5.6
2018-08-22T04:30:00.551Z,5.8
2018-08-22T04:35:00.486Z,6.0
2018-08-22T04:40:00.493Z,5.9
2018-08-22T04:45:00.493Z,5.7
2018-08-22T04:50:00.493Z,6.1
2018-08-22T05:00:00.498Z,6.0
2018-08-22T05:10:00.497Z,5.8
2018-08-22T05:15:00.501Z,6.0
2018-08-22T05:25:00.514Z,5.6
2018-08-22T05:30:00.544Z,6.0
2018-08-22T05:35:00.518Z,6.2
2018-08-22T05:40:00.520Z,6.0
2018-08-22T05:45:00.515Z,6.2
2018-08-22T05:50:00.584Z,6.1
2018-08-22T05:55:00.513Z,6.2
2018-08-22T06:00:00.522Z,6.1
2018-08-22T06:05:00.522Z,5.9
2018-08-22T06:10:00.526Z,5.4
2018-08-22T06:15:00.529Z,5.4
2018-08-22T06:20:00.601Z,5.0
2018-08-22T06:25:00.534Z,4.8
2018-08-22T06:30:00.570Z,4.8
2018-08-22T06:35:00.569Z,5.0
2018-08-22T06:45:00.635Z,5.0
2018-08-22T06:50:00.629Z,4.8
2018-08-22T07:00:00.567Z,4.5
2018-08-22T07:05:00.563Z,4.6
2018-08-22T07:10:00.643Z,4.7
2018-08-22T07:15:00.591Z,4.8
2018-08-22T07:25:00.656Z,4.9
2018-08-22T07:30:00.594Z,4.7
2018-08-22T07:45:00.671Z,4.5
2018-08-22T07:50:00.619Z,4.8
2018-08-22T08:00:00.660Z,4.8
2018-08-22T08:05:00.611Z,4.6
2018-08-22T08:10:00.630Z,4.7
2018-08-22T08:15:00.606Z,4.4
2018-08-22T08:20:00.681Z,4.6
2018-08-22T08:25:00.612Z,4.8
2018-08-22T08:30:00.628Z,4.9
2018-08-22T08:35:00.617Z,4.8
2018-08-22T08:45:00.771Z,4.8
2018-08-22T08:50:00.727Z,4.4
2018-08-22T08:55:00.624Z,4.6
2018-08-22T09:00:00.741Z,4.5
2018-08-22T09:10:00.647Z,5.0
2018-08-22T09:15:00.589Z,5.1
2018-08-22T09:25:00.687Z,5.3
2018-08-22T09:30:00.659Z,5.5
2018-08-22T09:35:00.598Z,4.9
2018-08-22T09:40:00.696Z,5.0
2018-08-22T09:45:00.597Z,4.9
2018-08-22T09:55:00.762Z,5.0
2018-08-22T10:00:00.742Z,4.8
2018-08-22T10:05:00.606Z,4.6
2018-08-22T10:10:00.816Z,4.9
2018-08-22T10:15:00.616Z,5.3
2018-08-22T10:20:00.655Z,5.2
2018-08-22T10:25:00.665Z,5.1
2018-08-22T10:30:00.789Z,5.3
2018-08-22T10:35:00.665Z,4.9
2018-08-22T10:40:00.787Z,4.5
2018-08-22T10:45:00.653Z,4.4
2018-08-22T10:55:00.694Z,4.6
2018-08-22T11:00:00.632Z,4.8
2018-08-22T11:15:00.698Z,4.9
2018-08-22T11:20:00.765Z,4.8
2018-08-22T11:25:00.637Z,4.6
2018-08-22T11:40:00.724Z,5.6
2018-08-22T11:45:00.731Z,5.3
2018-08-22T11:50:00.756Z,4.9
2018-08-22T12:00:00.765Z,4.7
2018-08-22T12:05:00.754Z,4.4
2018-08-22T12:15:01.032Z,4.4
2018-08-22T12:20:00.751Z,4.2
2018-08-22T12:25:00.755Z,4.6
2018-08-22T12:30:00.753Z,4.8
2018-08-22T12:40:00.900Z,4.6
2018-08-22T12:45:00.871Z,5.0
2018-08-22T12:50:00.926Z,4.8
2018-08-22T12:55:00.731Z,5.0
2018-08-22T13:00:00.732Z,5.0
2018-08-22T13:05:00.740Z,5.2
2018-08-22T13:10:00.799Z,4.9
2018-08-22T13:15:00.736Z,4.9
2018-08-22T13:20:00.742Z,4.7
2018-08-22T13:25:00.732Z,5.1
2018-08-22T13:30:00.744Z,5.6
2018-08-22T13:35:00.745Z,5.7
2018-08-22T13:45:00.740Z,5.6
2018-08-22T13:50:00.748Z,5.2
2018-08-22T13:55:00.749Z,4.8
2018-08-22T14:00:00.797Z,4.9
2018-08-22T14:05:00.801Z,5.0
2018-08-22T14:10:00.901Z,5.1
2018-08-22T14:15:00.838Z,5.1
2018-08-22T14:20:00.815Z,5.2
2018-08-22T14:25:00.806Z,5.3
2018-08-22T14:30:00.821Z,5.6
2018-08-22T14:35:00.813Z,5.8
2018-08-22T14:40:00.812Z,6.1
2018-08-22T14:45:00.846Z,6.2
2018-08-22T14:50:00.806Z,6.0
2018-08-22T14:55:00.828Z,5.6
2018-08-22T15:00:00.803Z,5.5
2018-08-22T15:05:00.823Z,5.7
2018-08-22T15:10:00.874Z,5.8
2018-08-22T15:15:00.812Z,6.0
2018-08-22T15:20:00.808Z,6.8
2018-08-22T15:25:00.813Z,7.2
2018-08-22T15:30:00.864Z,7.0
2018-08-22T15:35:00.835Z,7.3
2018-08-22T15:40:00.820Z,7.9
2018-08-22T15:45:00.803Z,7.4
2018-08-22T15:50:00.830Z,7.6
2018-08-22T15:55:00.812Z,8.0
2018-08-22T16:00:00.824Z,8.2
2018-08-22T16:05:00.820Z,8.4
2018-08-22T16:10:00.837Z,8.6
2018-08-22T16:15:00.839Z,8.6
2018-08-22T16:20:00.987Z,9.0
2018-08-22T16:30:00.898Z,8.9
2018-08-22T16:35:00.823Z,8.7
2018-08-22T16:45:00.893Z,8.7
2018-08-22T16:50:00.903Z,8.3
2018-08-22T16:55:00.838Z,8.2
2018-08-22T17:00:00.894Z,8.8
2018-08-22T17:10:00.870Z,9.0
2018-08-22T17:15:00.809Z,9.4
2018-08-22T17:30:00.944Z,9.8
2018-08-22T17:35:00.814Z,9.6
2018-08-22T17:40:00.886Z,10.3
2018-08-22T17:45:00.817Z,10.5
2018-08-22T18:00:00.624Z,10.4
2018-08-22T18:05:00.520Z,11.8
2018-08-22T18:10:00.484Z,12.2
2018-08-22T18:15:00.493Z,11.9
2018-08-22T18:25:00.622Z,12.4
2018-08-22T18:30:00.559Z,12.4
2018-08-22T18:35:00.541Z,12.0
2018-08-22T18:45:00.546Z,11.7
2018-08-22T18:50:00.594Z,11.6
2018-08-22T19:00:00.529Z,11.8
2018-08-22T19:05:00.467Z,12.0
2018-08-22T19:20:00.400Z,16.0
2018-08-22T19:25:00.382Z,14.6
2018-08-22T19:30:00.384Z,14.1
2018-08-22T19:35:00.325Z,13.6
2018-08-22T19:45:00.393Z,12.7
2018-08-22T19:55:00.458Z,13.0
2018-08-22T20:00:00.430Z,13.3
2018-08-22T20:05:00.376Z,13.0
2018-08-22T20:10:00.498Z,13.4
2018-08-22T20:15:00.395Z,13.6
2018-08-22T20:20:00.381Z,14.1
2018-08-22T20:25:00.333Z,14.8
2018-08-22T20:30:00.343Z,15.3
2018-08-22T20:35:00.339Z,15.6
2018-08-22T20:40:00.404Z,16.3
2018-08-22T20:45:00.346Z,15.4
2018-08-22T20:50:00.505Z,15.3
2018-08-22T20:55:00.344Z,15.2
2018-08-22T21:00:00.436Z,15.0
2018-08-22T21:05:00.392Z,14.3
2018-08-22T21:10:00.519Z,14.8
2018-08-22T21:15:00.385Z,14.6
2018-08-22T21:20:00.455Z,14.3
2018-08-22T21:25:00.378Z,14.4
2018-08-22T21:30:00.459Z,14.8
2018-08-22T21:35:00.384Z,15.4
2018-08-22T21:40:00.519Z,16.0
2018-08-22T21:45:00.376Z,16.4
2018-08-22T21:50:00.394Z,17.7
2018-08-22T21:55:00.426Z,18.0
2018-08-22T22:00:00.487Z,17.7
2018-08-22T22:05:00.423Z,16.9
2018-08-22T22:10:00.387Z,17.0
2018-08-22T22:15:00.356Z,16.4
2018-08-22T22:25:00.383Z,17.2
2018-08-22T22:30:00.494Z,18.0
2018-08-22T22:35:00.385Z,18.7
2018-08-22T22:40:00.430Z,19.2
2018-08-22T22:45:00.357Z,19.8
2018-08-22T22:50:00.451Z,20.1
2018-08-22T22:55:00.363Z,20.4
2018-08-22T23:00:00.496Z,21.7
2018-08-22T23:05:00.361Z,22.8
2018-08-22T23:10:00.464Z,23.4
2018-08-22T23:15:00.411Z,23.9
2018-08-22T23:20:00.558Z,25.4
2018-08-22T23:25:00.411Z,25.3
2018-08-22T23:30:00.532Z,25.4
2018-08-22T23:35:00.402Z,26.2
2018-08-22T23:50:01.159Z,27.4
2018-08-22T23:55:01.163Z,26.3
